createdAt,value
2018-07-10T00:00:16.978Z,1011.34
2018-07-10T00:02:09.839Z,1011.32
2018-07-10T00:03:09.771Z,1011.32
2018-07-10T00:05:02.744Z,1011.38
2018-07-10T00:06:02.706Z,1011.34
2018-07-10T00:07:55.549Z,1011.36
2018-07-10T00:08:55.501Z,1011.38
2018-07-10T00:10:48.332Z,1011.33
2018-07-10T00:11:48.291Z,1011.33
2018-07-10T00:13:41.127Z,1011.34
2018-07-10T00:14:41.091Z,1011.34
2018-07-10T00:16:34.095Z,1011.37
2018-07-10T00:17:34.031Z,1011.35
2018-07-10T00:19:27.185Z,1011.30
2018-07-10T00:20:27.119Z,1011.32
2018-07-10T00:22:20.115Z,1011.30
2018-07-10T00:23:20.062Z,1011.31
2018-07-10T00:25:13.050Z,1011.31
2018-07-10T00:26:13.019Z,1011.29
2018-07-10T00:28:05.860Z,1011.31
2018-07-10T00:29:05.814Z,1011.35
2018-07-10T00:30:58.826Z,1011.40
2018-07-10T00:31:58.763Z,1011.37
2018-07-10T00:33:51.736Z,1011.36
2018-07-10T00:34:51.704Z,1011.34
2018-07-10T00:36:44.954Z,1011.36
2018-07-10T00:37:44.788Z,1011.32
2018-07-10T00:39:37.754Z,1011.34
2018-07-10T00:40:37.721Z,1011.34
2018-07-10T00:42:30.698Z,1011.28
2018-07-10T00:43:30.661Z,1011.27
2018-07-10T00:45:23.786Z,1011.31
2018-07-10T00:46:23.757Z,1011.39
2018-07-10T00:48:16.746Z,1011.35
2018-07-10T00:49:16.691Z,1011.33
2018-07-10T00:51:09.607Z,1011.34
2018-07-10T00:52:09.469Z,1011.28
2018-07-10T00:54:02.644Z,1011.32
2018-07-10T00:55:02.573Z,1011.32
2018-07-10T00:56:55.563Z,1011.32
2018-07-10T00:57:55.497Z,1011.35
2018-07-10T00:59:48.324Z,1011.31
2018-07-10T01:00:48.301Z,1011.31
2018-07-10T01:02:41.447Z,1011.33
2018-07-10T01:03:41.403Z,1011.35
2018-07-10T01:05:34.374Z,1011.33
2018-07-10T01:06:34.348Z,1011.31
2018-07-10T01:08:27.360Z,1011.26
2018-07-10T01:09:27.292Z,1011.29
2018-07-10T01:11:20.150Z,1011.17
2018-07-10T01:12:20.122Z,1011.15
2018-07-10T01:14:13.104Z,1011.13
2018-07-10T01:15:13.057Z,1011.14
2018-07-10T01:17:06.048Z,1011.13
2018-07-10T01:18:05.998Z,1011.08
2018-07-10T01:19:59.197Z,1011.06
2018-07-10T01:20:59.092Z,1011.08
2018-07-10T01:22:52.082Z,1011.04
2018-07-10T01:23:52.025Z,1011.09
2018-07-10T01:25:45.000Z,1011.07
2018-07-10T01:26:44.968Z,1011.06
2018-07-10T01:28:37.848Z,1011.05
2018-07-10T01:29:37.806Z,1011.08
2018-07-10T01:31:30.658Z,1011.05
2018-07-10T01:32:30.598Z,1011.05
2018-07-10T01:34:23.605Z,1011.11
2018-07-10T01:35:23.565Z,1011.10
2018-07-10T01:37:16.525Z,1011.11
2018-07-10T01:38:16.489Z,1011.05
2018-07-10T01:40:09.341Z,1011.09
2018-07-10T01:41:09.284Z,1011.10
2018-07-10T01:43:02.275Z,1011.16
2018-07-10T01:44:02.243Z,1011.14
2018-07-10T01:45:55.064Z,1011.14
2018-07-10T01:46:55.020Z,1011.17
2018-07-10T01:48:48.013Z,1011.17
2018-07-10T01:49:47.948Z,1011.18
2018-07-10T01:51:40.828Z,1011.17
2018-07-10T01:52:40.780Z,1011.17
2018-07-10T01:54:33.789Z,1011.19
2018-07-10T01:55:33.739Z,1011.18
2018-07-10T01:57:26.539Z,1011.17
2018-07-10T01:58:26.506Z,1011.15
2018-07-10T02:00:19.863Z,1011.07
2018-07-10T02:01:19.735Z,1011.12
2018-07-10T02:03:12.554Z,1011.08
2018-07-10T02:04:12.514Z,1011.04
2018-07-10T02:06:05.516Z,1011.07
2018-07-10T02:07:05.468Z,1011.13
2018-07-10T02:08:58.524Z,1011.08
2018-07-10T02:09:58.518Z,1011.05
2018-07-10T02:11:51.395Z,1011.04
2018-07-10T02:12:51.287Z,1011.02
2018-07-10T02:14:44.465Z,1011.05
2018-07-10T02:15:44.403Z,1010.97
2018-07-10T02:17:37.531Z,1011.04
2018-07-10T02:18:37.486Z,1010.96
2018-07-10T02:20:30.501Z,1010.94
2018-07-10T02:21:30.434Z,1010.98
2018-07-10T02:23:23.396Z,1010.95
2018-07-10T02:24:23.370Z,1010.97
2018-07-10T02:26:16.245Z,1010.93
2018-07-10T02:27:16.155Z,1010.94
2018-07-10T02:29:09.128Z,1010.90
2018-07-10T02:30:09.081Z,1010.90
2018-07-10T02:32:02.085Z,1010.92
2018-07-10T02:33:02.110Z,1010.94
2018-07-10T02:34:54.842Z,1010.92
2018-07-10T02:35:54.811Z,1010.92
2018-07-10T02:37:47.774Z,1010.92
2018-07-10T02:38:47.717Z,1010.93
2018-07-10T02:40:40.688Z,1010.89
2018-07-10T02:41:40.659Z,1010.86
2018-07-10T02:43:33.666Z,1010.89
2018-07-10T02:44:33.614Z,1010.90
2018-07-10T02:46:26.798Z,1010.93
2018-07-10T02:47:26.686Z,1010.90
2018-07-10T02:49:19.661Z,1010.93
2018-07-10T02:50:19.623Z,1010.95
2018-07-10T02:52:12.612Z,1010.89
2018-07-10T02:53:12.570Z,1010.90
2018-07-10T02:55:05.633Z,1010.91
2018-07-10T02:56:05.651Z,1010.90
2018-07-10T02:57:58.633Z,1010.91
2018-07-10T02:58:58.522Z,1010.93
2018-07-10T03:00:51.489Z,1010.90
2018-07-10T03:01:51.449Z,1010.93
2018-07-10T03:03:44.337Z,1010.95
2018-07-10T03:04:44.287Z,1010.94
2018-07-10T03:06:37.254Z,1010.93
2018-07-10T03:07:37.240Z,1010.96
2018-07-10T03:09:30.273Z,1010.93
2018-07-10T03:10:30.230Z,1010.90
2018-07-10T03:12:23.063Z,1010.96
2018-07-10T03:13:23.031Z,1010.91
2018-07-10T03:15:16.022Z,1010.96
2018-07-10T03:16:15.978Z,1010.95
2018-07-10T03:18:08.799Z,1010.93
2018-07-10T03:19:08.753Z,1010.91
2018-07-10T03:21:01.744Z,1010.93
2018-07-10T03:22:01.702Z,1010.91
2018-07-10T03:23:54.858Z,1010.92
2018-07-10T03:24:54.773Z,1010.88
2018-07-10T03:26:47.739Z,1010.81
2018-07-10T03:27:47.709Z,1010.88
2018-07-10T03:29:40.689Z,1010.88
2018-07-10T03:30:40.645Z,1010.84
2018-07-10T03:32:33.479Z,1010.85
2018-07-10T03:33:33.415Z,1010.89
2018-07-10T03:35:26.393Z,1010.85
2018-07-10T03:36:26.420Z,1010.87
2018-07-10T03:38:19.364Z,1010.94
2018-07-10T03:39:19.310Z,1010.89
2018-07-10T03:41:12.130Z,1010.96
2018-07-10T03:42:12.081Z,1010.93
2018-07-10T03:44:04.905Z,1010.93
2018-07-10T03:45:04.858Z,1010.92
2018-07-10T03:46:57.755Z,1010.96
2018-07-10T03:47:57.630Z,1010.99
2018-07-10T03:49:50.623Z,1011.01
2018-07-10T03:50:50.569Z,1011.03
2018-07-10T03:52:43.581Z,1011.03
2018-07-10T03:53:43.545Z,1011.05
2018-07-10T03:55:36.377Z,1011.07
2018-07-10T03:56:36.329Z,1011.08
2018-07-10T03:58:29.320Z,1011.03
2018-07-10T03:59:29.265Z,1011.05
2018-07-10T04:01:22.255Z,1011.12
2018-07-10T04:02:22.197Z,1011.11
2018-07-10T04:04:15.239Z,1011.08
2018-07-10T04:05:15.220Z,1011.14
2018-07-10T04:07:08.221Z,1011.12
2018-07-10T04:08:08.168Z,1011.15
2018-07-10T04:10:00.980Z,1011.14
2018-07-10T04:11:00.941Z,1011.11
2018-07-10T04:12:53.925Z,1011.13
2018-07-10T04:13:53.874Z,1011.12
2018-07-10T04:15:47.007Z,1011.08
2018-07-10T04:16:46.955Z,1011.08
2018-07-10T04:18:39.927Z,1011.12
2018-07-10T04:19:39.900Z,1011.09
2018-07-10T04:21:32.750Z,1011.12
2018-07-10T04:22:32.701Z,1011.14
2018-07-10T04:24:26.003Z,1011.13
2018-07-10T04:25:25.972Z,1011.12
2018-07-10T04:27:19.000Z,1011.11
2018-07-10T04:28:18.942Z,1011.04
2018-07-10T04:30:12.083Z,1011.04
2018-07-10T04:31:12.030Z,1011.03
2018-07-10T04:33:05.022Z,1011.02
2018-07-10T04:34:04.956Z,1011.01
2018-07-10T04:35:57.948Z,1011.04
2018-07-10T04:36:57.911Z,1011.05
2018-07-10T04:38:50.833Z,1011.02
2018-07-10T04:39:50.772Z,1011.01
2018-07-10T04:41:43.732Z,1011.00
2018-07-10T04:42:43.684Z,1010.97
2018-07-10T04:44:36.661Z,1010.98
2018-07-10T04:45:36.613Z,1010.97
2018-07-10T04:47:29.811Z,1010.96
2018-07-10T04:48:29.709Z,1010.93
2018-07-10T04:50:22.697Z,1010.99
2018-07-10T04:51:22.658Z,1010.95
2018-07-10T04:53:15.657Z,1010.98
2018-07-10T04:54:15.602Z,1010.95
2018-07-10T04:56:08.463Z,1010.94
2018-07-10T04:57:08.425Z,1010.93
2018-07-10T04:59:01.477Z,1010.91
2018-07-10T05:00:01.442Z,1010.88
2018-07-10T05:01:54.393Z,1010.88
2018-07-10T05:02:54.357Z,1010.88
2018-07-10T05:04:47.552Z,1010.91
2018-07-10T05:05:47.522Z,1010.86
2018-07-10T05:07:40.468Z,1010.84
2018-07-10T05:08:40.440Z,1010.83
2018-07-10T05:10:33.471Z,1010.83
2018-07-10T05:11:33.423Z,1010.86
2018-07-10T05:13:26.294Z,1010.86
2018-07-10T05:14:26.211Z,1010.85
2018-07-10T05:16:19.204Z,1010.86
2018-07-10T05:17:19.157Z,1010.85
2018-07-10T05:19:12.159Z,1010.85
2018-07-10T05:20:12.102Z,1010.81
2018-07-10T05:22:05.520Z,1010.86
2018-07-10T05:23:04.993Z,1010.83
2018-07-10T05:24:57.964Z,1010.84
2018-07-10T05:25:57.894Z,1010.85
2018-07-10T05:27:50.865Z,1010.81
2018-07-10T05:28:50.897Z,1010.82
2018-07-10T05:30:44.083Z,1010.84
2018-07-10T05:31:43.914Z,1010.83
2018-07-10T05:33:36.877Z,1010.75
2018-07-10T05:34:36.840Z,1010.80
2018-07-10T05:36:29.835Z,1010.78
2018-07-10T05:37:29.785Z,1010.80
2018-07-10T05:39:22.938Z,1010.78
2018-07-10T05:40:22.866Z,1010.78
2018-07-10T05:42:15.709Z,1010.79
2018-07-10T05:43:15.655Z,1010.79
2018-07-10T05:45:08.684Z,1010.77
2018-07-10T05:46:08.614Z,1010.75
2018-07-10T05:48:01.763Z,1010.74
2018-07-10T05:49:01.679Z,1010.69
2018-07-10T05:50:54.687Z,1010.71
2018-07-10T05:51:54.706Z,1010.72
2018-07-10T05:53:47.617Z,1010.74
2018-07-10T05:54:47.581Z,1010.72
2018-07-10T05:56:40.411Z,1010.73
2018-07-10T05:57:40.365Z,1010.74
2018-07-10T05:59:33.346Z,1010.69
2018-07-10T06:00:33.301Z,1010.66
2018-07-10T06:02:26.327Z,1010.66
2018-07-10T06:03:26.296Z,1010.64
2018-07-10T06:05:19.440Z,1010.62
2018-07-10T06:06:19.307Z,1010.62
2018-07-10T06:08:12.315Z,1010.63
2018-07-10T06:09:12.257Z,1010.58
2018-07-10T06:11:05.232Z,1010.59
2018-07-10T06:12:05.202Z,1010.57
2018-07-10T06:13:58.373Z,1010.55
2018-07-10T06:14:58.286Z,1010.52
2018-07-10T06:16:51.299Z,1010.52
2018-07-10T06:17:51.220Z,1010.51
2018-07-10T06:19:44.202Z,1010.48
2018-07-10T06:20:44.172Z,1010.49
2018-07-10T06:22:37.198Z,1010.42
2018-07-10T06:23:37.157Z,1010.46
2018-07-10T06:25:30.124Z,1010.48
2018-07-10T06:26:30.089Z,1010.43
2018-07-10T06:28:23.072Z,1010.38
2018-07-10T06:29:23.038Z,1010.34
2018-07-10T06:31:17.038Z,1010.37
2018-07-10T06:32:16.997Z,1010.37
2018-07-10T06:34:09.966Z,1010.35
2018-07-10T06:35:09.923Z,1010.32
2018-07-10T06:37:02.737Z,1010.33
2018-07-10T06:38:02.713Z,1010.34
2018-07-10T06:39:55.844Z,1010.30
2018-07-10T06:40:55.769Z,1010.27
2018-07-10T06:42:48.746Z,1010.29
2018-07-10T06:43:48.711Z,1010.27
2018-07-10T06:45:41.689Z,1010.27
2018-07-10T06:46:41.641Z,1010.36
2018-07-10T06:48:35.561Z,1010.33
2018-07-10T06:49:35.504Z,1010.29
2018-07-10T06:51:28.508Z,1010.28
2018-07-10T06:52:28.625Z,1010.28
2018-07-10T06:54:21.448Z,1010.35
2018-07-10T06:55:21.434Z,1010.31
2018-07-10T06:57:14.202Z,1010.34
2018-07-10T06:58:14.168Z,1010.33
2018-07-10T07:00:07.009Z,1010.27
2018-07-10T07:01:06.948Z,1010.29
2018-07-10T07:02:59.909Z,1010.29
2018-07-10T07:03:59.872Z,1010.30
2018-07-10T07:05:52.875Z,1010.27
2018-07-10T07:06:52.823Z,1010.24
2018-07-10T07:08:46.098Z,1010.28
2018-07-10T07:09:45.918Z,1010.25
2018-07-10T07:11:38.909Z,1010.21
2018-07-10T07:12:38.853Z,1010.23
2018-07-10T07:14:32.828Z,1010.23
2018-07-10T07:15:32.790Z,1010.18
2018-07-10T07:17:25.683Z,1010.24
2018-07-10T07:18:25.630Z,1010.22
2018-07-10T07:20:18.617Z,1010.23
2018-07-10T07:21:18.584Z,1010.17
2018-07-10T07:23:11.570Z,1010.21
2018-07-10T07:24:11.518Z,1010.20
2018-07-10T07:26:04.720Z,1010.27
2018-07-10T07:27:04.610Z,1010.22
2018-07-10T07:28:57.574Z,1010.24
2018-07-10T07:29:57.535Z,1010.24
2018-07-10T07:31:50.540Z,1010.27
2018-07-10T07:32:50.483Z,1010.26
2018-07-10T07:34:43.396Z,1010.25
2018-07-10T07:35:43.358Z,1010.30
2018-07-10T07:37:36.364Z,1010.33
2018-07-10T07:38:36.314Z,1010.31
2018-07-10T07:40:29.269Z,1010.32
2018-07-10T07:41:29.284Z,1010.28
2018-07-10T07:43:22.079Z,1010.24
2018-07-10T07:44:22.063Z,1010.30
2018-07-10T07:46:15.074Z,1010.27
2018-07-10T07:47:15.035Z,1010.31
2018-07-10T07:49:08.041Z,1010.32
2018-07-10T07:50:07.995Z,1010.29
2018-07-10T07:52:00.971Z,1010.26
2018-07-10T07:53:00.943Z,1010.26
2018-07-10T07:54:53.961Z,1010.21
2018-07-10T07:55:53.895Z,1010.24
2018-07-10T07:57:46.881Z,1010.21
2018-07-10T07:58:46.829Z,1010.23
2018-07-10T08:00:39.801Z,1010.19
2018-07-10T08:01:39.766Z,1010.21
2018-07-10T08:03:32.791Z,1010.22
2018-07-10T08:04:32.739Z,1010.32
2018-07-10T08:06:26.740Z,1010.21
2018-07-10T08:07:26.702Z,1010.23
2018-07-10T08:09:19.769Z,1010.19
2018-07-10T08:10:19.716Z,1010.24
2018-07-10T08:12:12.697Z,1010.24
2018-07-10T08:13:12.655Z,1010.28
2018-07-10T08:15:05.691Z,1010.25
2018-07-10T08:16:05.625Z,1010.25
2018-07-10T08:17:58.860Z,1010.25
2018-07-10T08:18:58.733Z,1010.25
2018-07-10T08:20:51.713Z,1010.18
2018-07-10T08:21:51.676Z,1010.21
2018-07-10T08:23:44.677Z,1010.18
2018-07-10T08:24:44.633Z,1010.15
2018-07-10T08:26:37.456Z,1010.06
2018-07-10T08:27:37.426Z,1010.08
2018-07-10T08:29:30.405Z,1009.98
2018-07-10T08:30:30.370Z,1009.94
2018-07-10T08:32:24.370Z,1009.97
2018-07-10T08:33:24.395Z,1009.99
2018-07-10T08:35:17.482Z,1009.90
2018-07-10T08:36:17.425Z,1009.91
2018-07-10T08:38:10.447Z,1009.86
2018-07-10T08:39:10.403Z,1009.80
2018-07-10T08:41:03.253Z,1009.86
2018-07-10T08:42:03.209Z,1009.90
2018-07-10T08:43:56.370Z,1009.85
2018-07-10T08:44:56.326Z,1009.83
2018-07-10T08:46:49.317Z,1009.75
2018-07-10T08:47:49.268Z,1009.72
2018-07-10T08:49:42.281Z,1009.63
2018-07-10T08:50:42.271Z,1009.58
2018-07-10T08:52:35.107Z,1009.63
2018-07-10T08:53:35.060Z,1009.61
2018-07-10T08:55:28.053Z,1009.60
2018-07-10T08:56:28.011Z,1009.64
2018-07-10T08:58:20.994Z,1009.67
2018-07-10T08:59:20.961Z,1009.71
2018-07-10T09:01:13.793Z,1009.70
2018-07-10T09:02:13.749Z,1009.63
2018-07-10T09:04:06.684Z,1009.68
2018-07-10T09:05:06.608Z,1009.73
2018-07-10T09:06:59.604Z,1009.74
2018-07-10T09:07:59.606Z,1009.69
2018-07-10T09:09:52.577Z,1009.72
2018-07-10T09:10:52.534Z,1009.64
2018-07-10T09:12:45.398Z,1009.69
2018-07-10T09:13:45.401Z,1009.72
2018-07-10T09:15:38.333Z,1009.79
2018-07-10T09:16:38.301Z,1009.73
2018-07-10T09:18:31.108Z,1009.72
2018-07-10T09:19:31.065Z,1009.66
2018-07-10T09:21:24.080Z,1009.67
2018-07-10T09:22:24.038Z,1009.68
2018-07-10T09:24:17.088Z,1009.64
2018-07-10T09:25:17.044Z,1009.67
2018-07-10T09:27:10.029Z,1009.63
2018-07-10T09:28:09.976Z,1009.71
2018-07-10T09:30:03.148Z,1009.67
2018-07-10T09:31:03.104Z,1009.65
2018-07-10T09:32:56.119Z,1009.65
2018-07-10T09:33:56.062Z,1009.67
2018-07-10T09:35:49.060Z,1009.67
2018-07-10T09:36:49.011Z,1009.69
2018-07-10T09:38:42.350Z,1009.64
2018-07-10T09:39:42.113Z,1009.65
2018-07-10T09:41:34.934Z,1009.71
2018-07-10T09:42:34.918Z,1009.65
2018-07-10T09:44:27.902Z,1009.67
2018-07-10T09:45:27.855Z,1009.66
2018-07-10T09:47:20.990Z,1009.66
2018-07-10T09:48:20.955Z,1009.63
2018-07-10T09:50:13.961Z,1009.60
2018-07-10T09:51:13.907Z,1009.57
2018-07-10T09:53:06.915Z,1009.59
2018-07-10T09:54:06.845Z,1009.54
2018-07-10T09:55:59.676Z,1009.56
2018-07-10T09:56:59.635Z,1009.65
2018-07-10T09:58:52.631Z,1009.55
2018-07-10T09:59:52.571Z,1009.59
2018-07-10T10:01:45.613Z,1009.55
2018-07-10T10:02:45.536Z,1009.57
2018-07-10T10:04:38.717Z,1009.62
2018-07-10T10:05:38.620Z,1009.62
2018-07-10T10:07:31.597Z,1009.60
2018-07-10T10:08:31.588Z,1009.60
2018-07-10T10:10:24.558Z,1009.57
2018-07-10T10:11:24.496Z,1009.63
2018-07-10T10:13:17.342Z,1009.55
2018-07-10T10:14:17.317Z,1009.55
2018-07-10T10:16:10.320Z,1009.55
2018-07-10T10:17:10.261Z,1009.55
2018-07-10T10:19:03.268Z,1009.53
2018-07-10T10:20:03.218Z,1009.52
2018-07-10T10:21:56.419Z,1009.61
2018-07-10T10:22:56.314Z,1009.64
2018-07-10T10:24:49.322Z,1009.58
2018-07-10T10:25:49.315Z,1009.64
2018-07-10T10:27:42.330Z,1009.59
2018-07-10T10:28:42.272Z,1009.54
2018-07-10T10:30:35.446Z,1009.51
2018-07-10T10:31:35.417Z,1009.54
2018-07-10T10:33:28.427Z,1009.53
2018-07-10T10:34:28.388Z,1009.46
2018-07-10T10:36:21.499Z,1009.45
2018-07-10T10:37:21.474Z,1009.43
2018-07-10T10:39:14.475Z,1009.43
2018-07-10T10:40:14.437Z,1009.48
2018-07-10T10:42:07.432Z,1009.43
2018-07-10T10:43:07.396Z,1009.41
2018-07-10T10:45:00.423Z,1009.44
2018-07-10T10:46:00.383Z,1009.42
2018-07-10T10:47:53.382Z,1009.42
2018-07-10T10:48:53.419Z,1009.42
2018-07-10T10:50:46.479Z,1009.43
2018-07-10T10:51:46.432Z,1009.41
2018-07-10T10:53:39.588Z,1009.37
2018-07-10T10:54:39.600Z,1009.35
2018-07-10T10:56:32.905Z,1009.39
2018-07-10T10:57:32.848Z,1009.35
2018-07-10T10:59:25.813Z,1009.34
2018-07-10T11:00:25.792Z,1009.33
2018-07-10T11:02:19.064Z,1009.30
2018-07-10T11:03:18.927Z,1009.32
2018-07-10T11:05:11.933Z,1009.35
2018-07-10T11:06:11.902Z,1009.43
2018-07-10T11:08:04.893Z,1009.33
2018-07-10T11:09:04.853Z,1009.29
2018-07-10T11:10:57.678Z,1009.31
2018-07-10T11:11:57.633Z,1009.23
2018-07-10T11:13:50.646Z,1009.29
2018-07-10T11:14:50.588Z,1009.33
2018-07-10T11:16:43.588Z,1009.36
2018-07-10T11:17:43.530Z,1009.39
2018-07-10T11:19:36.709Z,1009.32
2018-07-10T11:20:36.643Z,1009.32
2018-07-10T11:22:29.636Z,1009.33
2018-07-10T11:23:29.583Z,1009.35
2018-07-10T11:25:22.599Z,1009.31
2018-07-10T11:26:22.568Z,1009.33
2018-07-10T11:28:15.664Z,1009.30
2018-07-10T11:29:15.386Z,1009.30
2018-07-10T11:31:08.218Z,1009.31
2018-07-10T11:32:08.184Z,1009.33
2018-07-10T11:34:01.253Z,1009.28
2018-07-10T11:35:01.126Z,1009.27
2018-07-10T11:36:54.114Z,1009.23
2018-07-10T11:37:54.075Z,1009.26
2018-07-10T11:39:47.126Z,1009.18
2018-07-10T11:40:47.090Z,1009.15
2018-07-10T11:42:39.910Z,1009.09
2018-07-10T11:43:39.861Z,1009.10
2018-07-10T11:45:32.839Z,1009.09
2018-07-10T11:46:32.829Z,1009.06
2018-07-10T11:48:25.980Z,1009.04
2018-07-10T11:49:25.893Z,1009.07
2018-07-10T11:51:18.893Z,1009.06
2018-07-10T11:52:18.829Z,1009.00
2018-07-10T11:54:12.184Z,1009.02
2018-07-10T11:55:12.044Z,1008.99
2018-07-10T11:57:05.066Z,1009.00
2018-07-10T11:58:05.010Z,1009.04
2018-07-10T11:59:57.995Z,1009.03
2018-07-10T12:00:57.956Z,1008.96
2018-07-10T12:02:50.791Z,1009.06
2018-07-10T12:03:50.731Z,1009.02
2018-07-10T12:05:43.732Z,1009.00
2018-07-10T12:06:43.718Z,1008.99
2018-07-10T12:08:36.711Z,1008.96
2018-07-10T12:09:36.644Z,1008.96
2018-07-10T12:11:29.495Z,1008.98
2018-07-10T12:12:29.521Z,1008.98
2018-07-10T12:14:22.564Z,1008.91
2018-07-10T12:15:22.512Z,1008.97
2018-07-10T12:17:15.481Z,1008.96
2018-07-10T12:18:15.459Z,1008.90
2018-07-10T12:20:08.551Z,1008.88
2018-07-10T12:21:08.494Z,1008.91
2018-07-10T12:23:01.320Z,1008.87
2018-07-10T12:24:01.266Z,1008.91
2018-07-10T12:25:54.286Z,1008.86
2018-07-10T12:26:54.233Z,1008.90
2018-07-10T12:28:47.229Z,1008.88
2018-07-10T12:29:47.163Z,1008.83
2018-07-10T12:31:40.013Z,1008.90
2018-07-10T12:32:39.946Z,1008.92
2018-07-10T12:34:32.930Z,1008.89
2018-07-10T12:35:32.887Z,1008.93
2018-07-10T12:37:25.916Z,1008.91
2018-07-10T12:38:25.897Z,1008.86
2018-07-10T12:40:19.109Z,1008.89
2018-07-10T12:41:18.964Z,1008.90
2018-07-10T12:43:12.932Z,1008.89
2018-07-10T12:44:12.892Z,1008.89
2018-07-10T12:46:05.893Z,1008.86
2018-07-10T12:47:05.836Z,1008.89
2018-07-10T12:48:58.669Z,1008.87
2018-07-10T12:49:58.613Z,1008.88
2018-07-10T12:51:51.640Z,1008.92
2018-07-10T12:52:51.572Z,1008.91
2018-07-10T12:54:44.429Z,1008.89
2018-07-10T12:55:44.358Z,1008.82
2018-07-10T12:57:37.359Z,1008.81
2018-07-10T12:58:37.322Z,1008.85
2018-07-10T13:00:30.257Z,1008.83
2018-07-10T13:01:30.204Z,1008.83
2018-07-10T13:03:23.170Z,1008.82
2018-07-10T13:04:23.137Z,1008.81
2018-07-10T13:06:16.138Z,1008.81
2018-07-10T13:07:16.083Z,1008.84
2018-07-10T13:09:09.249Z,1008.76
2018-07-10T13:10:09.229Z,1008.78
2018-07-10T13:12:02.030Z,1008.77
2018-07-10T13:13:01.978Z,1008.77
2018-07-10T13:14:54.952Z,1008.72
2018-07-10T13:15:54.961Z,1008.76
2018-07-10T13:17:48.060Z,1008.74
2018-07-10T13:18:47.992Z,1008.81
2018-07-10T13:20:41.046Z,1008.67
2018-07-10T13:21:40.925Z,1008.76
2018-07-10T13:23:33.906Z,1008.71
2018-07-10T13:24:33.875Z,1008.82
2018-07-10T13:26:26.701Z,1008.82
2018-07-10T13:27:26.645Z,1008.89
2018-07-10T13:29:19.644Z,1008.85
2018-07-10T13:30:19.600Z,1008.96
2018-07-10T13:32:12.584Z,1008.86
2018-07-10T13:33:12.550Z,1008.88
2018-07-10T13:35:05.515Z,1008.89
2018-07-10T13:36:05.475Z,1008.73
2018-07-10T13:37:58.311Z,1008.76
2018-07-10T13:38:58.274Z,1008.78
2018-07-10T13:40:52.217Z,1008.70
2018-07-10T13:41:52.190Z,1008.68
2018-07-10T13:43:45.175Z,1008.61
2018-07-10T13:44:45.151Z,1008.56
2018-07-10T13:46:38.320Z,1008.57
2018-07-10T13:47:38.196Z,1008.56
2018-07-10T13:49:31.187Z,1008.58
2018-07-10T13:50:31.130Z,1008.53
2018-07-10T13:52:24.108Z,1008.50
2018-07-10T13:53:24.084Z,1008.56
2018-07-10T13:55:17.206Z,1008.52
2018-07-10T13:56:17.127Z,1008.58
2018-07-10T13:58:10.124Z,1008.56
2018-07-10T13:59:10.079Z,1008.58
2018-07-10T14:01:03.386Z,1008.44
2018-07-10T14:02:03.376Z,1008.47
2018-07-10T14:03:56.394Z,1008.44
2018-07-10T14:04:56.302Z,1008.38
2018-07-10T14:06:49.723Z,1008.44
2018-07-10T14:07:49.546Z,1008.33
2018-07-10T14:09:42.538Z,1008.31
2018-07-10T14:10:42.492Z,1008.30
2018-07-10T14:12:35.525Z,1008.31
2018-07-10T14:13:35.469Z,1008.28
2018-07-10T14:15:28.532Z,1008.21
2018-07-10T14:16:28.467Z,1008.23
2018-07-10T14:18:21.468Z,1008.24
2018-07-10T14:19:21.457Z,1008.22
2018-07-10T14:21:14.369Z,1008.16
2018-07-10T14:22:14.229Z,1008.08
2018-07-10T14:24:07.092Z,1008.10
2018-07-10T14:25:07.043Z,1008.14
2018-07-10T14:27:00.083Z,1008.07
2018-07-10T14:28:00.013Z,1008.19
2018-07-10T14:29:53.001Z,1008.05
2018-07-10T14:30:52.992Z,1008.19
2018-07-10T14:32:46.092Z,1007.99
2018-07-10T14:33:46.067Z,1007.97
2018-07-10T14:35:39.051Z,1007.99
2018-07-10T14:36:38.995Z,1007.90
2018-07-10T14:38:31.968Z,1007.94
2018-07-10T14:39:31.933Z,1007.90
2018-07-10T14:41:24.778Z,1007.85
2018-07-10T14:42:24.742Z,1007.89
2018-07-10T14:44:17.704Z,1007.83
2018-07-10T14:45:17.712Z,1007.91
2018-07-10T14:47:10.687Z,1007.83
2018-07-10T14:48:10.694Z,1007.75
2018-07-10T14:50:03.455Z,1007.70
2018-07-10T14:51:03.423Z,1007.67
2018-07-10T14:52:56.377Z,1007.67
2018-07-10T14:53:56.284Z,1007.65
2018-07-10T14:55:49.283Z,1007.59
2018-07-10T14:56:49.238Z,1007.58
2018-07-10T14:58:42.240Z,1007.60
2018-07-10T14:59:42.184Z,1007.59
2018-07-10T15:01:35.362Z,1007.54
2018-07-10T15:02:35.284Z,1007.59
2018-07-10T15:04:28.288Z,1007.52
2018-07-10T15:05:28.262Z,1007.58
2018-07-10T15:07:21.265Z,1007.56
2018-07-10T15:08:21.199Z,1007.57
2018-07-10T15:10:14.039Z,1007.48
2018-07-10T15:11:14.000Z,1007.50
2018-07-10T15:13:06.998Z,1007.46
2018-07-10T15:14:06.949Z,1007.50
2018-07-10T15:15:59.869Z,1007.55
2018-07-10T15:16:59.730Z,1007.53
2018-07-10T15:18:52.566Z,1007.54
2018-07-10T15:19:52.509Z,1007.53
2018-07-10T15:21:45.727Z,1007.50
2018-07-10T15:22:45.609Z,1007.53
2018-07-10T15:24:38.605Z,1007.42
2018-07-10T15:25:38.549Z,1007.45
2018-07-10T15:27:31.529Z,1007.45
2018-07-10T15:28:31.496Z,1007.47
2018-07-10T15:30:25.383Z,1007.44
2018-07-10T15:31:25.318Z,1007.41
2018-07-10T15:33:18.313Z,1007.47
2018-07-10T15:34:18.268Z,1007.40
2018-07-10T15:36:11.073Z,1007.34
2018-07-10T15:37:11.054Z,1007.35
2018-07-10T15:39:04.399Z,1007.38
2018-07-10T15:40:04.279Z,1007.40
2018-07-10T15:41:57.254Z,1007.40
2018-07-10T15:42:57.233Z,1007.42
2018-07-10T15:44:50.231Z,1007.49
2018-07-10T15:45:50.172Z,1007.47
2018-07-10T15:47:43.013Z,1007.49
2018-07-10T15:48:42.954Z,1007.44
2018-07-10T15:50:35.964Z,1007.44
2018-07-10T15:51:35.924Z,1007.47
2018-07-10T15:53:28.930Z,1007.43
2018-07-10T15:54:28.921Z,1007.41
2018-07-10T15:56:22.044Z,1007.41
2018-07-10T15:57:21.949Z,1007.39
2018-07-10T15:59:14.979Z,1007.37
2018-07-10T16:00:14.872Z,1007.40
2018-07-10T16:02:07.721Z,1007.39
2018-07-10T16:03:07.777Z,1007.37
2018-07-10T16:05:00.850Z,1007.41
2018-07-10T16:06:00.769Z,1007.40
2018-07-10T16:07:53.747Z,1007.37
2018-07-10T16:08:53.710Z,1007.38
2018-07-10T16:10:46.730Z,1007.33
2018-07-10T16:11:46.679Z,1007.30
2018-07-10T16:13:39.827Z,1007.26
2018-07-10T16:14:39.799Z,1007.30
2018-07-10T16:16:32.805Z,1007.35
2018-07-10T16:17:32.791Z,1007.26
2018-07-10T16:19:26.012Z,1007.30
2018-07-10T16:20:25.868Z,1007.28
2018-07-10T16:22:19.840Z,1007.33
2018-07-10T16:23:19.819Z,1007.31
2018-07-10T16:25:12.651Z,1007.29
2018-07-10T16:26:12.597Z,1007.35
2018-07-10T16:28:05.396Z,1007.41
2018-07-10T16:29:05.367Z,1007.28
2018-07-10T16:30:58.491Z,1007.39
2018-07-10T16:31:58.330Z,1007.32
2018-07-10T16:33:51.340Z,1007.23
2018-07-10T16:34:51.305Z,1007.19
2018-07-10T16:36:44.318Z,1007.17
2018-07-10T16:37:44.266Z,1007.09
2018-07-10T16:39:37.400Z,1007.08
2018-07-10T16:40:37.374Z,1007.01
2018-07-10T16:42:30.397Z,1007.13
2018-07-10T16:43:30.348Z,1007.08
2018-07-10T16:45:23.567Z,1007.06
2018-07-10T16:46:23.460Z,1007.04
2018-07-10T16:48:16.471Z,1007.00
2018-07-10T16:49:16.406Z,1007.01
2018-07-10T16:51:09.248Z,1007.03
2018-07-10T16:52:09.191Z,1006.95
2018-07-10T16:54:02.017Z,1006.84
2018-07-10T16:55:01.976Z,1006.99
2018-07-10T16:56:54.891Z,1006.95
2018-07-10T16:57:54.843Z,1007.00
2018-07-10T16:59:47.827Z,1006.99
2018-07-10T17:00:47.792Z,1006.98
2018-07-10T17:02:40.637Z,1006.99
2018-07-10T17:03:40.594Z,1007.00
2018-07-10T17:05:33.567Z,1006.92
2018-07-10T17:06:33.542Z,1006.95
2018-07-10T17:08:26.407Z,1006.86
2018-07-10T17:09:26.346Z,1006.93
2018-07-10T17:11:19.346Z,1006.83
2018-07-10T17:12:19.319Z,1006.87
2018-07-10T17:14:12.341Z,1006.87
2018-07-10T17:15:12.323Z,1006.89
2018-07-10T17:17:05.445Z,1006.84
2018-07-10T17:18:05.423Z,1006.78
2018-07-10T17:19:58.443Z,1006.74
2018-07-10T17:20:58.397Z,1006.69
2018-07-10T17:22:51.640Z,1006.71
2018-07-10T17:23:51.504Z,1006.69
2018-07-10T17:25:44.494Z,1006.71